Key Center, Washington
Current Conditions -  °F | °C
As of 3:53 AM on Sunday 25 Jan 2015 (Local Time) from KTIW Reporting Station
Overcast Overcast  
Wind Chill: 51°   Ceiling: 200
Heat Index: 51°   Visibility: 9mi
Dew Point: 50°   Wind: 9mph
Humidity: 96%   Direction: 180°S
Pressure: 30.21"   Gusts: NA
Location:  47.2986°N, 122.616°W
Report Text: KTIW 251153Z AUTO 18008KT 9SM OVC002 11/10 A3021 RMK AO2 SLP231 T01060100 10128 20106 50000
Loading
Personal Weather Stations






























Interactive Weather Map New forecast layout! Learn more

10-Day Weather Forecast

Advertisements
Track Severe Weather on mobile